sensor_id;sensor_type;location;lat;lon;timestamp;temperature;humidity
35680;DHT22;21803;53.586;10.040;2023-12-28T00:02:04;21.30;45.00
35680;DHT22;21803;53.586;10.040;2023-12-28T00:04:30;21.40;45.00
35680;DHT22;21803;53.586;10.040;2023-12-28T00:06:56;21.30;45.00
35680;DHT22;21803;53.586;10.040;2023-12-28T00:09:21;21.40;45.00
35680;DHT22;21803;53.586;10.040;2023-12-28T00:11:47;21.40;45.00
35680;DHT22;21803;53.586;10.040;2023-12-28T00:14:13;21.40;45.00
35680;DHT22;21803;53.586;10.040;2023-12-28T00:16:38;21.40;45.00
35680;DHT22;21803;53.586;10.040;2023-12-28T00:19:04;21.30;45.00
35680;DHT22;21803;53.586;10.040;2023-12-28T00:21:30;21.30;45.00
35680;DHT22;21803;53.586;10.040;2023-12-28T00:23:56;21.30;45.00
35680;DHT22;21803;53.586;10.040;2023-12-28T00:26:22;21.30;45.00
35680;DHT22;21803;53.586;10.040;2023-12-28T00:28:48;23.30;45.90
35680;DHT22;21803;53.586;10.040;2023-12-28T00:31:13;21.30;44.90
35680;DHT22;21803;53.586;10.040;2023-12-28T00:33:39;21.30;45.00
35680;DHT22;21803;53.586;10.040;2023-12-28T00:36:05;21.30;45.00
35680;DHT22;21803;53.586;10.040;2023-12-28T00:38:30;21.30;44.90
35680;DHT22;21803;53.586;10.040;2023-12-28T00:40:57;21.30;45.00
35680;DHT22;21803;53.586;10.040;2023-12-28T00:43:22;21.30;45.00
35680;DHT22;21803;53.586;10.040;2023-12-28T00:45:48;21.30;45.00
35680;DHT22;21803;53.586;10.040;2023-12-28T00:48:13;21.30;45.00
35680;DHT22;21803;53.586;10.040;2023-12-28T00:50:39;21.30;45.00
35680;DHT22;21803;53.586;10.040;2023-12-28T00:53:05;21.30;45.00
35680;DHT22;21803;53.586;10.040;2023-12-28T00:55:30;21.30;45.10
35680;DHT22;21803;53.586;10.040;2023-12-28T00:57:56;21.30;45.10
35680;DHT22;21803;53.586;10.040;2023-12-28T01:00:21;21.30;45.10
35680;DHT22;21803;53.586;10.040;2023-12-28T01:02:47;21.30;45.10
35680;DHT22;21803;53.586;10.040;2023-12-28T01:05:13;21.30;45.10
35680;DHT22;21803;53.586;10.040;2023-12-28T01:07:39;21.20;45.10
35680;DHT22;21803;53.586;10.040;2023-12-28T01:10:05;21.30;45.10
35680;DHT22;21803;53.586;10.040;2023-12-28T01:12:31;21.30;45.10
35680;DHT22;21803;53.586;10.040;2023-12-28T01:14:56;21.30;45.10
35680;DHT22;21803;53.586;10.040;2023-12-28T01:17:22;21.30;45.20
35680;DHT22;21803;53.586;10.040;2023-12-28T01:19:48;21.30;45.20
35680;DHT22;21803;53.586;10.040;2023-12-28T01:22:13;21.20;45.10
35680;DHT22;21803;53.586;10.040;2023-12-28T01:24:39;21.20;45.10
35680;DHT22;21803;53.586;10.040;2023-12-28T01:27:04;21.20;45.10
35680;DHT22;21803;53.586;10.040;2023-12-28T01:29:30;21.20;45.20
35680;DHT22;21803;53.586;10.040;2023-12-28T01:31:55;21.20;45.20
35680;DHT22;21803;53.586;10.040;2023-12-28T01:34:21;21.20;45.20
35680;DHT22;21803;53.586;10.040;2023-12-28T01:36:46;21.20;45.30
35680;DHT22;21803;53.586;10.040;2023-12-28T01:39:12;21.20;45.20
35680;DHT22;21803;53.586;10.040;2023-12-28T01:41:38;23.90;46.60
35680;DHT22;21803;53.586;10.040;2023-12-28T01:44:03;21.20;45.30
35680;DHT22;21803;53.586;10.040;2023-12-28T01:46:29;21.20;45.30
35680;DHT22;21803;53.586;10.040;2023-12-28T01:48:55;21.20;45.30
35680;DHT22;21803;53.586;10.040;2023-12-28T01:51:21;21.10;45.30
35680;DHT22;21803;53.586;10.040;2023-12-28T01:53:49;21.20;45.30
35680;DHT22;21803;53.586;10.040;2023-12-28T01:56:15;21.20;45.40
35680;DHT22;21803;53.586;10.040;2023-12-28T01:58:43;21.20;45.40
35680;DHT22;21803;53.586;10.040;2023-12-28T02:01:10;21.20;45.40
35680;DHT22;21803;53.586;10.040;2023-12-28T02:03:36;21.20;45.40
35680;DHT22;21803;53.586;10.040;2023-12-28T02:06:02;21.20;45.50
35680;DHT22;21803;53.586;10.040;2023-12-28T02:08:29;21.20;45.40
35680;DHT22;21803;53.586;10.040;2023-12-28T02:10:54;21.20;45.50
35680;DHT22;21803;53.586;10.040;2023-12-28T02:13:23;21.20;45.40
35680;DHT22;21803;53.586;10.040;2023-12-28T02:18:54;21.10;45.40
35680;DHT22;21803;53.586;10.040;2023-12-28T02:21:21;21.10;45.50
35680;DHT22;21803;53.586;10.040;2023-12-28T02:23:48;21.20;45.50
35680;DHT22;21803;53.586;10.040;2023-12-28T02:26:14;21.10;45.50
35680;DHT22;21803;53.586;10.040;2023-12-28T02:28:40;21.10;45.50
35680;DHT22;21803;53.586;10.040;2023-12-28T02:31:08;21.10;45.50
35680;DHT22;21803;53.586;10.040;2023-12-28T02:33:48;21.10;45.50
35680;DHT22;21803;53.586;10.040;2023-12-28T02:36:18;21.10;45.50
35680;DHT22;21803;53.586;10.040;2023-12-28T02:38:48;21.10;45.50
35680;DHT22;21803;53.586;10.040;2023-12-28T02:41:14;21.10;45.50
35680;DHT22;21803;53.586;10.040;2023-12-28T02:43:39;21.00;45.50
35680;DHT22;21803;53.586;10.040;2023-12-28T02:46:05;21.10;45.50
35680;DHT22;21803;53.586;10.040;2023-12-28T02:48:31;21.10;45.60
35680;DHT22;21803;53.586;10.040;2023-12-28T02:50:56;21.10;45.60
35680;DHT22;21803;53.586;10.040;2023-12-28T02:53:22;21.00;45.50
35680;DHT22;21803;53.586;10.040;2023-12-28T02:55:47;21.10;45.60
35680;DHT22;21803;53.586;10.040;2023-12-28T02:58:13;21.10;45.60
35680;DHT22;21803;53.586;10.040;2023-12-28T03:00:38;21.00;45.60
35680;DHT22;21803;53.586;10.040;2023-12-28T03:03:04;21.10;45.60
35680;DHT22;21803;53.586;10.040;2023-12-28T03:05:30;21.00;45.50
35680;DHT22;21803;53.586;10.040;2023-12-28T03:07:55;21.00;45.60
35680;DHT22;21803;53.586;10.040;2023-12-28T03:10:21;21.00;45.60
35680;DHT22;21803;53.586;10.040;2023-12-28T03:12:46;21.00;45.60
35680;DHT22;21803;53.586;10.040;2023-12-28T03:15:13;21.00;45.60
35680;DHT22;21803;53.586;10.040;2023-12-28T03:17:38;21.00;45.60
35680;DHT22;21803;53.586;10.040;2023-12-28T03:20:04;21.00;45.60
35680;DHT22;21803;53.586;10.040;2023-12-28T03:22:30;21.00;45.60
35680;DHT22;21803;53.586;10.040;2023-12-28T03:24:56;21.00;45.60
35680;DHT22;21803;53.586;10.040;2023-12-28T03:27:21;21.00;45.60
35680;DHT22;21803;53.586;10.040;2023-12-28T03:29:47;21.00;45.60
35680;DHT22;21803;53.586;10.040;2023-12-28T03:32:14;21.00;45.60
35680;DHT22;21803;53.586;10.040;2023-12-28T03:34:39;21.00;45.60
35680;DHT22;21803;53.586;10.040;2023-12-28T03:37:05;21.00;45.70
35680;DHT22;21803;53.586;10.040;2023-12-28T03:39:31;21.00;45.70
35680;DHT22;21803;53.586;10.040;2023-12-28T03:41:56;21.00;45.70
35680;DHT22;21803;53.586;10.040;2023-12-28T03:44:22;20.90;45.60
35680;DHT22;21803;53.586;10.040;2023-12-28T03:46:48;21.00;45.70
35680;DHT22;21803;53.586;10.040;2023-12-28T03:49:18;20.90;45.60
35680;DHT22;21803;53.586;10.040;2023-12-28T03:51:45;21.00;45.70
35680;DHT22;21803;53.586;10.040;2023-12-28T03:54:11;21.00;45.70
35680;DHT22;21803;53.586;10.040;2023-12-28T03:56:36;21.00;45.70
35680;DHT22;21803;53.586;10.040;2023-12-28T03:59:05;21.00;45.70
35680;DHT22;21803;53.586;10.040;2023-12-28T04:01:31;21.00;45.70
35680;DHT22;21803;53.586;10.040;2023-12-28T04:03:56;21.00;45.70
35680;DHT22;21803;53.586;10.040;2023-12-28T04:06:22;21.00;45.70
35680;DHT22;21803;53.586;10.040;2023-12-28T04:08:48;20.90;45.70
35680;DHT22;21803;53.586;10.040;2023-12-28T04:11:14;20.90;45.70
35680;DHT22;21803;53.586;10.040;2023-12-28T04:13:40;20.90;45.70
35680;DHT22;21803;53.586;10.040;2023-12-28T04:16:05;20.90;45.70
35680;DHT22;21803;53.586;10.040;2023-12-28T04:18:32;20.90;45.70
35680;DHT22;21803;53.586;10.040;2023-12-28T04:20:58;20.90;45.70
35680;DHT22;21803;53.586;10.040;2023-12-28T04:23:23;20.90;45.80
35680;DHT22;21803;53.586;10.040;2023-12-28T04:25:49;20.90;45.70
35680;DHT22;21803;53.586;10.040;2023-12-28T04:28:14;20.90;45.70
35680;DHT22;21803;53.586;10.040;2023-12-28T04:30:40;20.90;45.70
35680;DHT22;21803;53.586;10.040;2023-12-28T04:33:06;20.90;45.70
35680;DHT22;21803;53.586;10.040;2023-12-28T04:35:31;20.90;45.80
35680;DHT22;21803;53.586;10.040;2023-12-28T04:37:57;20.90;45.70
35680;DHT22;21803;53.586;10.040;2023-12-28T04:40:22;20.90;45.70
35680;DHT22;21803;53.586;10.040;2023-12-28T04:42:48;20.90;45.80
35680;DHT22;21803;53.586;10.040;2023-12-28T04:45:14;20.90;45.80
35680;DHT22;21803;53.586;10.040;2023-12-28T04:47:39;20.90;45.80
35680;DHT22;21803;53.586;10.040;2023-12-28T04:50:06;20.90;45.80
35680;DHT22;21803;53.586;10.040;2023-12-28T04:52:32;20.90;45.80
35680;DHT22;21803;53.586;10.040;2023-12-28T04:54:58;20.90;45.80
35680;DHT22;21803;53.586;10.040;2023-12-28T04:57:23;20.90;45.80
35680;DHT22;21803;53.586;10.040;2023-12-28T04:59:53;20.90;45.80
35680;DHT22;21803;53.586;10.040;2023-12-28T05:02:19;20.90;45.80
35680;DHT22;21803;53.586;10.040;2023-12-28T05:04:44;20.90;45.80
35680;DHT22;21803;53.586;10.040;2023-12-28T05:07:10;20.80;45.80
35680;DHT22;21803;53.586;10.040;2023-12-28T05:09:36;18.50;44.60
35680;DHT22;21803;53.586;10.040;2023-12-28T05:12:02;20.80;45.80
35680;DHT22;21803;53.586;10.040;2023-12-28T05:14:28;20.80;45.80
35680;DHT22;21803;53.586;10.040;2023-12-28T05:16:53;20.80;45.80
35680;DHT22;21803;53.586;10.040;2023-12-28T05:19:19;20.80;45.80
35680;DHT22;21803;53.586;10.040;2023-12-28T05:21:44;20.80;45.90
35680;DHT22;21803;53.586;10.040;2023-12-28T05:24:10;20.80;45.80
35680;DHT22;21803;53.586;10.040;2023-12-28T05:26:36;20.80;45.80
35680;DHT22;21803;53.586;10.040;2023-12-28T05:29:02;20.80;45.80
35680;DHT22;21803;53.586;10.040;2023-12-28T05:31:27;20.80;45.80
35680;DHT22;21803;53.586;10.040;2023-12-28T05:33:53;20.80;45.80
35680;DHT22;21803;53.586;10.040;2023-12-28T05:36:18;20.80;45.80
35680;DHT22;21803;53.586;10.040;2023-12-28T05:38:44;20.80;45.80
35680;DHT22;21803;53.586;10.040;2023-12-28T05:41:10;20.80;45.80
35680;DHT22;21803;53.586;10.040;2023-12-28T05:43:38;20.80;45.80
35680;DHT22;21803;53.586;10.040;2023-12-28T05:46:04;20.80;45.80
35680;DHT22;21803;53.586;10.040;2023-12-28T05:48:30;20.80;45.80
35680;DHT22;21803;53.586;10.040;2023-12-28T05:50:59;20.80;45.90
35680;DHT22;21803;53.586;10.040;2023-12-28T05:53:25;20.80;45.80
35680;DHT22;21803;53.586;10.040;2023-12-28T05:55:52;20.80;45.80
35680;DHT22;21803;53.586;10.040;2023-12-28T05:58:17;20.80;45.90
35680;DHT22;21803;53.586;10.040;2023-12-28T06:00:43;20.80;45.80
35680;DHT22;21803;53.586;10.040;2023-12-28T06:03:09;20.80;45.90
35680;DHT22;21803;53.586;10.040;2023-12-28T06:05:34;20.80;45.90
35680;DHT22;21803;53.586;10.040;2023-12-28T06:08:00;20.80;45.90
35680;DHT22;21803;53.586;10.040;2023-12-28T06:10:26;20.80;45.90
35680;DHT22;21803;53.586;10.040;2023-12-28T06:12:51;20.80;45.90
35680;DHT22;21803;53.586;10.040;2023-12-28T06:15:17;20.80;45.90
35680;DHT22;21803;53.586;10.040;2023-12-28T06:17:42;20.80;45.90
35680;DHT22;21803;53.586;10.040;2023-12-28T06:20:08;20.80;45.90
35680;DHT22;21803;53.586;10.040;2023-12-28T06:22:38;20.80;45.90
35680;DHT22;21803;53.586;10.040;2023-12-28T06:25:04;20.80;45.90
35680;DHT22;21803;53.586;10.040;2023-12-28T06:27:30;20.70;45.90
35680;DHT22;21803;53.586;10.040;2023-12-28T06:29:55;20.70;45.90
35680;DHT22;21803;53.586;10.040;2023-12-28T06:32:21;20.70;45.90
35680;DHT22;21803;53.586;10.040;2023-12-28T06:34:47;20.70;45.90
35680;DHT22;21803;53.586;10.040;2023-12-28T06:37:13;20.70;46.00
35680;DHT22;21803;53.586;10.040;2023-12-28T06:39:39;20.70;46.00
35680;DHT22;21803;53.586;10.040;2023-12-28T06:42:05;18.80;45.10
35680;DHT22;21803;53.586;10.040;2023-12-28T06:44:30;20.70;46.60
35680;DHT22;21803;53.586;10.040;2023-12-28T06:46:56;20.70;46.00
35680;DHT22;21803;53.586;10.040;2023-12-28T06:49:21;20.70;46.00
35680;DHT22;21803;53.586;10.040;2023-12-28T06:51:47;20.70;46.00
35680;DHT22;21803;53.586;10.040;2023-12-28T06:54:13;20.70;46.00
35680;DHT22;21803;53.586;10.040;2023-12-28T06:56:40;20.70;46.00
35680;DHT22;21803;53.586;10.040;2023-12-28T06:59:06;20.70;46.00
35680;DHT22;21803;53.586;10.040;2023-12-28T07:01:31;20.70;46.00
35680;DHT22;21803;53.586;10.040;2023-12-28T07:03:57;20.70;46.00
35680;DHT22;21803;53.586;10.040;2023-12-28T07:06:24;20.70;46.00
35680;DHT22;21803;53.586;10.040;2023-12-28T07:08:50;20.70;46.10
35680;DHT22;21803;53.586;10.040;2023-12-28T07:11:15;20.70;46.10
35680;DHT22;21803;53.586;10.040;2023-12-28T07:13:41;20.70;46.10
35680;DHT22;21803;53.586;10.040;2023-12-28T07:16:07;20.70;46.10
35680;DHT22;21803;53.586;10.040;2023-12-28T07:18:33;20.70;46.10
35680;DHT22;21803;53.586;10.040;2023-12-28T07:20:58;20.70;46.10
35680;DHT22;21803;53.586;10.040;2023-12-28T07:23:25;20.70;46.70
35680;DHT22;21803;53.586;10.040;2023-12-28T07:25:51;20.70;46.10
35680;DHT22;21803;53.586;10.040;2023-12-28T07:28:16;20.70;46.10
35680;DHT22;21803;53.586;10.040;2023-12-28T07:30:42;20.70;46.10
35680;DHT22;21803;53.586;10.040;2023-12-28T07:33:07;20.70;46.10
35680;DHT22;21803;53.586;10.040;2023-12-28T07:35:33;20.60;46.10
35680;DHT22;21803;53.586;10.040;2023-12-28T07:37:59;20.70;46.10
35680;DHT22;21803;53.586;10.040;2023-12-28T07:40:24;20.60;46.10
35680;DHT22;21803;53.586;10.040;2023-12-28T07:42:50;20.60;46.10
35680;DHT22;21803;53.586;10.040;2023-12-28T07:45:15;20.70;46.10
35680;DHT22;21803;53.586;10.040;2023-12-28T07:47:42;20.70;46.10
35680;DHT22;21803;53.586;10.040;2023-12-28T07:50:08;21.20;46.40
35680;DHT22;21803;53.586;10.040;2023-12-28T07:52:36;20.60;46.10
35680;DHT22;21803;53.586;10.040;2023-12-28T07:55:03;20.60;46.10
35680;DHT22;21803;53.586;10.040;2023-12-28T07:57:29;20.60;46.10
35680;DHT22;21803;53.586;10.040;2023-12-28T07:59:56;20.60;46.10
35680;DHT22;21803;53.586;10.040;2023-12-28T08:02:21;20.60;46.10
35680;DHT22;21803;53.586;10.040;2023-12-28T08:04:47;20.60;46.10
35680;DHT22;21803;53.586;10.040;2023-12-28T08:07:13;20.60;46.10
35680;DHT22;21803;53.586;10.040;2023-12-28T08:09:39;20.60;46.10
35680;DHT22;21803;53.586;10.040;2023-12-28T08:12:05;20.60;46.10
35680;DHT22;21803;53.586;10.040;2023-12-28T08:14:31;20.60;46.10
35680;DHT22;21803;53.586;10.040;2023-12-28T08:16:56;20.60;46.10
35680;DHT22;21803;53.586;10.040;2023-12-28T08:19:22;20.60;46.10
35680;DHT22;21803;53.586;10.040;2023-12-28T08:21:47;20.60;46.10
35680;DHT22;21803;53.586;10.040;2023-12-28T08:24:13;20.60;46.10
35680;DHT22;21803;53.586;10.040;2023-12-28T08:26:38;20.60;46.10
35680;DHT22;21803;53.586;10.040;2023-12-28T08:29:04;20.60;46.10
35680;DHT22;21803;53.586;10.040;2023-12-28T08:31:29;20.60;46.10
35680;DHT22;21803;53.586;10.040;2023-12-28T08:33:55;20.60;46.10
35680;DHT22;21803;53.586;10.040;2023-12-28T08:36:21;20.60;46.10
35680;DHT22;21803;53.586;10.040;2023-12-28T08:38:47;20.60;46.20
35680;DHT22;21803;53.586;10.040;2023-12-28T08:41:20;20.60;46.20
35680;DHT22;21803;53.586;10.040;2023-12-28T08:43:46;20.60;46.10
35680;DHT22;21803;53.586;10.040;2023-12-28T08:46:13;20.60;46.20
35680;DHT22;21803;53.586;10.040;2023-12-28T08:48:38;20.60;46.20
35680;DHT22;21803;53.586;10.040;2023-12-28T08:51:04;20.60;46.20
35680;DHT22;21803;53.586;10.040;2023-12-28T08:53:30;20.60;46.20
35680;DHT22;21803;53.586;10.040;2023-12-28T08:55:55;20.60;46.20
35680;DHT22;21803;53.586;10.040;2023-12-28T08:58:21;20.60;46.20
35680;DHT22;21803;53.586;10.040;2023-12-28T09:00:46;20.60;46.20
35680;DHT22;21803;53.586;10.040;2023-12-28T09:03:13;20.60;46.20
35680;DHT22;21803;53.586;10.040;2023-12-28T09:05:38;20.60;46.20
35680;DHT22;21803;53.586;10.040;2023-12-28T09:08:04;20.60;46.20
35680;DHT22;21803;53.586;10.040;2023-12-28T09:10:30;20.60;46.20
35680;DHT22;21803;53.586;10.040;2023-12-28T09:12:55;20.60;46.20
35680;DHT22;21803;53.586;10.040;2023-12-28T09:15:21;20.50;46.20
35680;DHT22;21803;53.586;10.040;2023-12-28T09:17:46;20.60;46.20
35680;DHT22;21803;53.586;10.040;2023-12-28T09:20:12;20.60;46.20
35680;DHT22;21803;53.586;10.040;2023-12-28T09:22:37;20.60;46.20
35680;DHT22;21803;53.586;10.040;2023-12-28T09:25:03;20.50;46.20
35680;DHT22;21803;53.586;10.040;2023-12-28T09:27:30;20.50;46.20
35680;DHT22;21803;53.586;10.040;2023-12-28T09:29:55;20.60;46.20
35680;DHT22;21803;53.586;10.040;2023-12-28T09:32:21;20.60;46.20
35680;DHT22;21803;53.586;10.040;2023-12-28T09:34:47;20.60;46.20
35680;DHT22;21803;53.586;10.040;2023-12-28T09:37:13;20.60;46.20
35680;DHT22;21803;53.586;10.040;2023-12-28T09:39:38;20.50;46.20
35680;DHT22;21803;53.586;10.040;2023-12-28T09:42:09;20.60;46.20
35680;DHT22;21803;53.586;10.040;2023-12-28T09:44:38;20.50;46.20
35680;DHT22;21803;53.586;10.040;2023-12-28T09:47:06;20.50;46.20
35680;DHT22;21803;53.586;10.040;2023-12-28T09:49:32;20.50;46.20
35680;DHT22;21803;53.586;10.040;2023-12-28T09:51:59;20.50;46.20
35680;DHT22;21803;53.586;10.040;2023-12-28T09:54:24;20.50;46.20
35680;DHT22;21803;53.586;10.040;2023-12-28T09:56:50;20.50;46.20
35680;DHT22;21803;53.586;10.040;2023-12-28T09:59:16;20.50;46.20
35680;DHT22;21803;53.586;10.040;2023-12-28T10:01:43;20.50;46.20
35680;DHT22;21803;53.586;10.040;2023-12-28T10:04:11;20.50;46.20
35680;DHT22;21803;53.586;10.040;2023-12-28T10:06:36;20.50;46.20
35680;DHT22;21803;53.586;10.040;2023-12-28T10:09:02;20.50;46.20
35680;DHT22;21803;53.586;10.040;2023-12-28T10:11:29;20.50;46.20
35680;DHT22;21803;53.586;10.040;2023-12-28T10:13:54;20.50;46.20
35680;DHT22;21803;53.586;10.040;2023-12-28T10:16:20;20.50;46.20
35680;DHT22;21803;53.586;10.040;2023-12-28T10:18:46;20.50;46.20
35680;DHT22;21803;53.586;10.040;2023-12-28T10:21:12;20.50;46.20
35680;DHT22;21803;53.586;10.040;2023-12-28T10:23:38;20.50;46.20
35680;DHT22;21803;53.586;10.040;2023-12-28T10:26:04;20.50;46.20
35680;DHT22;21803;53.586;10.040;2023-12-28T10:28:40;20.50;46.20
35680;DHT22;21803;53.586;10.040;2023-12-28T10:31:05;20.50;46.20
35680;DHT22;21803;53.586;10.040;2023-12-28T10:33:35;20.50;46.20
35680;DHT22;21803;53.586;10.040;2023-12-28T10:36:05;20.50;46.20
35680;DHT22;21803;53.586;10.040;2023-12-28T10:38:35;20.50;46.20
35680;DHT22;21803;53.586;10.040;2023-12-28T10:41:09;20.50;46.20
35680;DHT22;21803;53.586;10.040;2023-12-28T10:44:17;20.50;46.20
35680;DHT22;21803;53.586;10.040;2023-12-28T10:46:39;20.50;46.20
35680;DHT22;21803;53.586;10.040;2023-12-28T10:49:11;20.50;46.20
35680;DHT22;21803;53.586;10.040;2023-12-28T10:51:41;20.50;46.20
35680;DHT22;21803;53.586;10.040;2023-12-28T10:59:54;20.50;46.20
35680;DHT22;21803;53.586;10.040;2023-12-28T11:02:29;20.50;46.50
35680;DHT22;21803;53.586;10.040;2023-12-28T11:04:59;20.50;46.20
35680;DHT22;21803;53.586;10.040;2023-12-28T11:07:26;20.50;46.20
35680;DHT22;21803;53.586;10.040;2023-12-28T11:10:00;20.50;46.20
35680;DHT22;21803;53.586;10.040;2023-12-28T11:12:27;20.50;46.20
35680;DHT22;21803;53.586;10.040;2023-12-28T11:14:54;20.50;46.20
35680;DHT22;21803;53.586;10.040;2023-12-28T11:17:20;20.50;46.20
35680;DHT22;21803;53.586;10.040;2023-12-28T11:19:47;20.50;46.20
35680;DHT22;21803;53.586;10.040;2023-12-28T11:22:14;20.50;46.20
35680;DHT22;21803;53.586;10.040;2023-12-28T11:24:40;20.50;46.20
35680;DHT22;21803;53.586;10.040;2023-12-28T11:27:06;20.50;46.20
35680;DHT22;21803;53.586;10.040;2023-12-28T11:29:32;20.50;46.20
35680;DHT22;21803;53.586;10.040;2023-12-28T11:31:58;20.50;46.20
35680;DHT22;21803;53.586;10.040;2023-12-28T11:34:33;20.50;46.20
35680;DHT22;21803;53.586;10.040;2023-12-28T11:37:06;20.50;46.20
35680;DHT22;21803;53.586;10.040;2023-12-28T11:39:33;20.50;46.20
35680;DHT22;21803;53.586;10.040;2023-12-28T11:42:08;20.50;46.20
35680;DHT22;21803;53.586;10.040;2023-12-28T11:44:39;20.50;46.20
35680;DHT22;21803;53.586;10.040;2023-12-28T11:47:22;20.40;46.10
35680;DHT22;21803;53.586;10.040;2023-12-28T11:49:48;20.50;46.20
35680;DHT22;21803;53.586;10.040;2023-12-28T11:52:30;20.40;46.10
35680;DHT22;21803;53.586;10.040;2023-12-28T11:54:57;20.40;46.10
35680;DHT22;21803;53.586;10.040;2023-12-28T11:57:23;20.40;46.20
35680;DHT22;21803;53.586;10.040;2023-12-28T11:59:53;20.40;46.20
35680;DHT22;21803;53.586;10.040;2023-12-28T12:02:19;20.40;46.20
35680;DHT22;21803;53.586;10.040;2023-12-28T12:04:45;20.40;46.20
35680;DHT22;21803;53.586;10.040;2023-12-28T12:07:11;21.00;46.50
35680;DHT22;21803;53.586;10.040;2023-12-28T12:09:36;20.40;46.20
35680;DHT22;21803;53.586;10.040;2023-12-28T12:12:02;20.40;46.20
35680;DHT22;21803;53.586;10.040;2023-12-28T12:14:28;20.40;46.20
35680;DHT22;21803;53.586;10.040;2023-12-28T12:16:55;20.40;46.20
35680;DHT22;21803;53.586;10.040;2023-12-28T12:19:24;20.40;46.20
35680;DHT22;21803;53.586;10.040;2023-12-28T12:21:52;20.40;46.20
35680;DHT22;21803;53.586;10.040;2023-12-28T12:24:18;20.40;46.20
35680;DHT22;21803;53.586;10.040;2023-12-28T12:26:46;20.40;46.20
35680;DHT22;21803;53.586;10.040;2023-12-28T12:29:12;20.40;46.20
35680;DHT22;21803;53.586;10.040;2023-12-28T12:31:37;20.40;46.20
35680;DHT22;21803;53.586;10.040;2023-12-28T12:34:10;20.40;46.30
35680;DHT22;21803;53.586;10.040;2023-12-28T12:36:36;20.40;46.30
35680;DHT22;21803;53.586;10.040;2023-12-28T12:39:02;20.40;46.30
35680;DHT22;21803;53.586;10.040;2023-12-28T12:41:35;20.40;46.30
35680;DHT22;21803;53.586;10.040;2023-12-28T12:44:01;20.40;46.30
35680;DHT22;21803;53.586;10.040;2023-12-28T12:46:26;20.40;46.30
35680;DHT22;21803;53.586;10.040;2023-12-28T12:48:59;20.40;46.30
35680;DHT22;21803;53.586;10.040;2023-12-28T12:51:26;20.40;46.30
35680;DHT22;21803;53.586;10.040;2023-12-28T12:53:59;20.40;46.30
35680;DHT22;21803;53.586;10.040;2023-12-28T12:56:31;20.40;46.30
35680;DHT22;21803;53.586;10.040;2023-12-28T12:58:57;20.40;46.30
35680;DHT22;21803;53.586;10.040;2023-12-28T13:01:23;20.40;46.30
35680;DHT22;21803;53.586;10.040;2023-12-28T13:03:50;20.40;46.30
35680;DHT22;21803;53.586;10.040;2023-12-28T13:06:16;20.40;46.30
35680;DHT22;21803;53.586;10.040;2023-12-28T13:08:41;20.40;46.30
35680;DHT22;21803;53.586;10.040;2023-12-28T13:11:07;20.40;46.30
35680;DHT22;21803;53.586;10.040;2023-12-28T13:13:33;20.30;46.30
35680;DHT22;21803;53.586;10.040;2023-12-28T13:16:00;20.40;46.30
35680;DHT22;21803;53.586;10.040;2023-12-28T13:18:26;20.40;46.30
35680;DHT22;21803;53.586;10.040;2023-12-28T13:20:51;20.40;46.30
35680;DHT22;21803;53.586;10.040;2023-12-28T13:23:17;20.40;46.30
35680;DHT22;21803;53.586;10.040;2023-12-28T13:25:42;20.40;46.30
35680;DHT22;21803;53.586;10.040;2023-12-28T13:28:09;20.40;46.30
35680;DHT22;21803;53.586;10.040;2023-12-28T13:30:35;20.30;46.30
35680;DHT22;21803;53.586;10.040;2023-12-28T13:33:02;20.40;46.30
35680;DHT22;21803;53.586;10.040;2023-12-28T13:35:28;20.30;46.30
35680;DHT22;21803;53.586;10.040;2023-12-28T13:37:54;20.30;46.30
35680;DHT22;21803;53.586;10.040;2023-12-28T13:40:19;20.30;46.30
35680;DHT22;21803;53.586;10.040;2023-12-28T13:42:45;20.30;46.30
35680;DHT22;21803;53.586;10.040;2023-12-28T13:45:10;20.30;46.30
35680;DHT22;21803;53.586;10.040;2023-12-28T13:47:36;20.40;46.30
35680;DHT22;21803;53.586;10.040;2023-12-28T13:50:01;20.30;46.30
35680;DHT22;21803;53.586;10.040;2023-12-28T13:52:27;20.30;46.30
35680;DHT22;21803;53.586;10.040;2023-12-28T13:54:53;20.40;46.30
35680;DHT22;21803;53.586;10.040;2023-12-28T13:57:18;20.30;46.30
35680;DHT22;21803;53.586;10.040;2023-12-28T13:59:44;20.30;46.30
35680;DHT22;21803;53.586;10.040;2023-12-28T14:02:09;20.30;46.30
35680;DHT22;21803;53.586;10.040;2023-12-28T14:04:35;20.30;46.30
35680;DHT22;21803;53.586;10.040;2023-12-28T14:07:01;20.30;46.40
35680;DHT22;21803;53.586;10.040;2023-12-28T14:09:26;20.30;46.40
35680;DHT22;21803;53.586;10.040;2023-12-28T14:11:52;20.30;46.30
35680;DHT22;21803;53.586;10.040;2023-12-28T14:14:17;20.30;46.40
35680;DHT22;21803;53.586;10.040;2023-12-28T14:16:43;20.30;46.40
35680;DHT22;21803;53.586;10.040;2023-12-28T14:19:09;20.30;46.40
35680;DHT22;21803;53.586;10.040;2023-12-28T14:21:37;20.30;46.40
35680;DHT22;21803;53.586;10.040;2023-12-28T14:24:03;20.30;46.40
35680;DHT22;21803;53.586;10.040;2023-12-28T14:26:29;20.30;46.40
35680;DHT22;21803;53.586;10.040;2023-12-28T14:28:57;20.30;46.40
35680;DHT22;21803;53.586;10.040;2023-12-28T14:31:22;20.30;46.40
35680;DHT22;21803;53.586;10.040;2023-12-28T14:33:48;20.30;46.40
35680;DHT22;21803;53.586;10.040;2023-12-28T14:38:39;20.30;47.10
35680;DHT22;21803;53.586;10.040;2023-12-28T14:41:05;20.30;46.40
35680;DHT22;21803;53.586;10.040;2023-12-28T14:43:30;20.30;46.50
35680;DHT22;21803;53.586;10.040;2023-12-28T14:45:56;20.30;46.50
35680;DHT22;21803;53.586;10.040;2023-12-28T14:48:21;20.30;46.50
35680;DHT22;21803;53.586;10.040;2023-12-28T14:50:47;20.30;46.40
35680;DHT22;21803;53.586;10.040;2023-12-28T14:53:12;20.30;46.50
35680;DHT22;21803;53.586;10.040;2023-12-28T14:55:38;20.30;46.50
35680;DHT22;21803;53.586;10.040;2023-12-28T14:58:03;20.20;46.40
35680;DHT22;21803;53.586;10.040;2023-12-28T15:00:29;20.30;46.50
35680;DHT22;21803;53.586;10.040;2023-12-28T15:02:54;20.20;46.40
35680;DHT22;21803;53.586;10.040;2023-12-28T15:05:20;20.20;46.40
35680;DHT22;21803;53.586;10.040;2023-12-28T15:07:45;20.20;46.40
35680;DHT22;21803;53.586;10.040;2023-12-28T15:10:13;20.20;46.40
35680;DHT22;21803;53.586;10.040;2023-12-28T15:12:39;20.20;46.40
35680;DHT22;21803;53.586;10.040;2023-12-28T15:15:05;20.20;46.40
35680;DHT22;21803;53.586;10.040;2023-12-28T15:17:31;20.20;46.40
35680;DHT22;21803;53.586;10.040;2023-12-28T15:19:57;20.30;46.40
35680;DHT22;21803;53.586;10.040;2023-12-28T15:22:23;20.20;46.40